createdAt,value
2018-05-26T00:00:05.181Z,21.9
2018-05-26T00:15:05.109Z,21.5
2018-05-26T00:30:04.805Z,21.5
2018-05-26T00:45:04.506Z,21.6
2018-05-26T01:00:04.509Z,21.4
2018-05-26T01:15:04.559Z,21.1
2018-05-26T01:30:05.279Z,21.3
2018-05-26T01:45:04.792Z,20.9
2018-05-26T02:00:05.146Z,20.6
2018-05-26T02:15:04.938Z,20.9
2018-05-26T02:30:04.739Z,20.2
2018-05-26T02:45:04.595Z,20.5
2018-05-26T03:00:05.097Z,20.1
2018-05-26T03:15:04.857Z,20.5
2018-05-26T03:30:04.843Z,20.5
2018-05-26T03:45:04.943Z,20.4
2018-05-26T04:00:04.403Z,20.3
2018-05-26T04:15:06.080Z,20.1
2018-05-26T04:30:05.225Z,20.3
2018-05-26T04:45:04.934Z,20
2018-05-26T05:00:05.147Z,20.2
2018-05-26T05:15:04.900Z,20
2018-05-26T05:30:05.273Z,19.9
2018-05-26T05:45:04.784Z,20.7
2018-05-26T06:00:04.902Z,21
2018-05-26T06:15:05.455Z,21.3
2018-05-26T06:30:05.004Z,22.1
2018-05-26T06:45:05.159Z,22.6
2018-05-26T07:00:05.260Z,23.1
2018-05-26T07:15:04.732Z,23.7
2018-05-26T07:30:04.653Z,24.3
2018-05-26T07:45:05.199Z,25
2018-05-26T08:00:04.826Z,25.8
2018-05-26T08:15:04.478Z,26.2
2018-05-26T08:30:05.201Z,27.3
2018-05-26T08:45:05.396Z,28.2
2018-05-26T09:00:04.400Z,28.9
2018-05-26T09:15:05.804Z,29
2018-05-26T09:30:04.950Z,29.1
2018-05-26T09:45:09.810Z,29.4
2018-05-26T10:00:04.396Z,29.6
2018-05-26T10:15:04.932Z,29.7
2018-05-26T10:30:05.081Z,29.4
2018-05-26T10:45:05.125Z,29.4
2018-05-26T11:00:06.907Z,29.7
2018-05-26T11:15:05.342Z,29.7
2018-05-26T11:30:05.400Z,29.8
2018-05-26T11:45:04.737Z,29.7
2018-05-26T12:00:04.254Z,29.8
2018-05-26T12:15:05.107Z,29.9
2018-05-26T12:30:04.926Z,29.9
2018-05-26T12:45:04.929Z,30
2018-05-26T13:00:05.097Z,29.9
2018-05-26T13:15:05.075Z,30
2018-05-26T13:30:04.813Z,29.9
2018-05-26T13:45:04.445Z,30.3
2018-05-26T14:00:04.950Z,30.1
2018-05-26T14:15:04.406Z,30.1
2018-05-26T14:30:05.120Z,30.2
2018-05-26T14:45:05.224Z,30.3
2018-05-26T15:00:04.647Z,30
2018-05-26T15:15:04.521Z,30.2
2018-05-26T15:30:04.696Z,30.4
2018-05-26T15:45:04.823Z,30.3
2018-05-26T16:00:04.312Z,30.6
2018-05-26T16:15:04.562Z,30.5
2018-05-26T16:30:04.362Z,30.3
2018-05-26T16:45:04.349Z,30.1
2018-05-26T17:00:04.469Z,30.4
2018-05-26T17:15:05.079Z,30.3
2018-05-26T17:30:04.565Z,30.1
2018-05-26T17:45:04.691Z,29.7
2018-05-26T18:00:05.783Z,29.6
2018-05-26T18:15:04.739Z,29.4
2018-05-26T18:30:04.488Z,29
2018-05-26T18:45:04.424Z,28.8
2018-05-26T19:00:04.992Z,28.3
2018-05-26T19:15:04.720Z,28.2
2018-05-26T19:30:04.930Z,27.8
2018-05-26T19:45:05.056Z,27.5
2018-05-26T20:00:04.520Z,27.3
2018-05-26T20:15:04.701Z,27.4
2018-05-26T20:30:05.193Z,27.4
2018-05-26T20:45:05.553Z,27.3
2018-05-26T21:00:05.357Z,26.9
2018-05-26T21:15:05.805Z,27
2018-05-26T21:30:04.670Z,26.7
2018-05-26T21:45:05.117Z,26.7
2018-05-26T22:00:05.511Z,26.9
2018-05-26T22:15:05.027Z,26.8
2018-05-26T22:30:05.024Z,26.5
2018-05-26T22:45:06.301Z,26.5
2018-05-26T23:00:04.904Z,26.2
2018-05-26T23:15:04.590Z,26.1
2018-05-26T23:30:04.557Z,25.7
2018-05-26T23:45:05.192Z,25.4
